sensor_id;sensor_type;location;lat;lon;timestamp;pressure;altitude;pressure_sealevel;temperature;humidity
18795;BME280;29610;49.022;12.114;2023-07-13T00:01:17;97520.81;;;21.40;100.00
18795;BME280;29610;49.022;12.114;2023-07-13T00:03:45;97518.06;;;21.40;100.00
18795;BME280;29610;49.022;12.114;2023-07-13T00:06:14;97528.75;;;21.34;100.00
18795;BME280;29610;49.022;12.114;2023-07-13T00:08:43;97529.53;;;21.42;100.00
18795;BME280;29610;49.022;12.114;2023-07-13T00:11:11;97534.25;;;21.45;100.00
18795;BME280;29610;49.022;12.114;2023-07-13T00:13:40;97538.63;;;21.46;100.00
18795;BME280;29610;49.022;12.114;2023-07-13T00:16:11;97542.94;;;21.47;100.00
18795;BME280;29610;49.022;12.114;2023-07-13T00:18:42;97554.78;;;21.33;100.00
18795;BME280;29610;49.022;12.114;2023-07-13T00:21:11;97552.44;;;21.28;100.00
18795;BME280;29610;49.022;12.114;2023-07-13T00:23:42;97554.78;;;21.23;100.00
18795;BME280;29610;49.022;12.114;2023-07-13T00:26:12;97547.31;;;21.23;100.00
18795;BME280;29610;49.022;12.114;2023-07-13T00:28:41;97551.66;;;21.28;100.00
18795;BME280;29610;49.022;12.114;2023-07-13T00:31:11;97542.94;;;21.22;100.00
18795;BME280;29610;49.022;12.114;2023-07-13T00:33:43;97546.91;;;21.28;100.00
18795;BME280;29610;49.022;12.114;2023-07-13T00:36:12;97546.88;;;21.18;100.00
18795;BME280;29610;49.022;12.114;2023-07-13T00:38:41;97549.56;;;20.83;100.00
18795;BME280;29610;49.022;12.114;2023-07-13T00:41:10;97536.16;;;20.95;100.00
18795;BME280;29610;49.022;12.114;2023-07-13T00:43:40;97540.50;;;20.89;100.00
18795;BME280;29610;49.022;12.114;2023-07-13T00:46:24;97539.38;;;20.97;100.00
18795;BME280;29610;49.022;12.114;2023-07-13T00:48:58;97531.09;;;21.01;100.00
18795;BME280;29610;49.022;12.114;2023-07-13T00:51:33;97542.13;;;20.97;100.00
18795;BME280;29610;49.022;12.114;2023-07-13T00:54:07;97548.41;;;20.94;100.00
18795;BME280;29610;49.022;12.114;2023-07-13T00:56:39;97544.44;;;20.85;100.00
18795;BME280;29610;49.022;12.114;2023-07-13T00:59:12;97549.16;;;20.81;100.00
18795;BME280;29610;49.022;12.114;2023-07-13T01:01:41;97558.63;;;20.80;100.00
18795;BME280;29610;49.022;12.114;2023-07-13T01:04:11;97557.47;;;20.88;100.00
18795;BME280;29610;49.022;12.114;2023-07-13T01:06:42;97541.75;;;21.06;100.00
18795;BME280;29610;49.022;12.114;2023-07-13T01:09:12;97555.19;;;21.07;100.00
18795;BME280;29610;49.022;12.114;2023-07-13T01:11:41;97547.28;;;21.09;100.00
18795;BME280;29610;49.022;12.114;2023-07-13T01:14:13;97556.78;;;21.19;100.00
18795;BME280;29610;49.022;12.114;2023-07-13T01:16:46;97545.69;;;21.05;100.00
18795;BME280;29610;49.022;12.114;2023-07-13T01:19:31;97542.94;;;21.12;100.00
18795;BME280;29610;49.022;12.114;2023-07-13T01:22:08;97546.47;;;21.16;100.00
18795;BME280;29610;49.022;12.114;2023-07-13T01:24:41;97550.44;;;21.15;100.00
18795;BME280;29610;49.022;12.114;2023-07-13T01:27:15;97540.59;;;21.17;100.00
18795;BME280;29610;49.022;12.114;2023-07-13T01:29:45;97536.66;;;21.22;100.00
18795;BME280;29610;49.022;12.114;2023-07-13T01:32:19;97543.34;;;21.21;100.00
18795;BME280;29610;49.022;12.114;2023-07-13T01:34:51;97537.72;;;20.86;100.00
18795;BME280;29610;49.022;12.114;2023-07-13T01:37:24;97538.19;;;21.02;100.00
18795;BME280;29610;49.022;12.114;2023-07-13T01:39:54;97550.78;;;20.85;100.00
18795;BME280;29610;49.022;12.114;2023-07-13T01:42:22;97537.81;;;20.96;100.00
18795;BME280;29610;49.022;12.114;2023-07-13T01:44:51;97530.22;;;20.79;100.00
18795;BME280;29610;49.022;12.114;2023-07-13T01:47:19;97531.81;;;20.87;100.00
18795;BME280;29610;49.022;12.114;2023-07-13T01:49:48;97524.69;;;20.72;100.00
18795;BME280;29610;49.022;12.114;2023-07-13T01:52:19;97534.59;;;20.80;100.00
18795;BME280;29610;49.022;12.114;2023-07-13T01:54:49;97532.22;;;20.82;100.00
18795;BME280;29610;49.022;12.114;2023-07-13T01:57:18;97524.31;;;20.81;100.00
18795;BME280;29610;49.022;12.114;2023-07-13T01:59:46;97528.28;;;20.83;100.00
18795;BME280;29610;49.022;12.114;2023-07-13T02:02:15;97523.53;;;20.87;100.00
18795;BME280;29610;49.022;12.114;2023-07-13T02:04:44;97525.91;;;20.92;100.00
18795;BME280;29610;49.022;12.114;2023-07-13T02:07:13;97531.81;;;20.91;100.00
18795;BME280;29610;49.022;12.114;2023-07-13T02:09:44;97528.28;;;20.87;100.00
18795;BME280;29610;49.022;12.114;2023-07-13T02:12:14;97525.47;;;20.76;100.00
18795;BME280;29610;49.022;12.114;2023-07-13T02:14:43;97527.47;;;20.83;100.00
18795;BME280;29610;49.022;12.114;2023-07-13T02:17:11;97529.44;;;20.79;100.00
18795;BME280;29610;49.022;12.114;2023-07-13T02:19:40;97531.78;;;20.73;100.00
18795;BME280;29610;49.022;12.114;2023-07-13T02:22:08;97529.03;;;20.66;100.00
18795;BME280;29610;49.022;12.114;2023-07-13T02:24:37;97530.56;;;20.60;100.00
18795;BME280;29610;49.022;12.114;2023-07-13T02:27:06;97527.03;;;20.56;100.00
18795;BME280;29610;49.022;12.114;2023-07-13T02:29:36;97540.41;;;20.44;100.00
18795;BME280;29610;49.022;12.114;2023-07-13T02:32:06;97537.94;;;20.28;100.00
18795;BME280;29610;49.022;12.114;2023-07-13T02:34:35;97540.13;;;19.98;100.00
18795;BME280;29610;49.022;12.114;2023-07-13T02:37:04;97533.84;;;19.97;100.00
18795;BME280;29610;49.022;12.114;2023-07-13T02:39:34;97548.47;;;20.05;100.00
18795;BME280;29610;49.022;12.114;2023-07-13T02:42:04;97550.88;;;20.13;100.00
18795;BME280;29610;49.022;12.114;2023-07-13T02:44:33;97551.19;;;20.01;100.00
18795;BME280;29610;49.022;12.114;2023-07-13T02:47:03;97552.69;;;19.85;100.00
18795;BME280;29610;49.022;12.114;2023-07-13T02:49:31;97553.81;;;19.77;100.00
18795;BME280;29610;49.022;12.114;2023-07-13T02:52:00;97553.38;;;19.71;100.00
18795;BME280;29610;49.022;12.114;2023-07-13T02:54:31;97558.53;;;19.76;100.00
18795;BME280;29610;49.022;12.114;2023-07-13T02:57:00;97547.88;;;19.71;100.00
18795;BME280;29610;49.022;12.114;2023-07-13T02:59:28;97551.41;;;19.75;100.00
18795;BME280;29610;49.022;12.114;2023-07-13T03:01:57;97548.94;;;19.53;100.00
18795;BME280;29610;49.022;12.114;2023-07-13T03:04:28;97552.03;;;19.48;100.00
18795;BME280;29610;49.022;12.114;2023-07-13T03:06:56;97555.88;;;19.36;100.00
18795;BME280;29610;49.022;12.114;2023-07-13T03:09:33;97549.22;;;19.41;100.00
18795;BME280;29610;49.022;12.114;2023-07-13T03:12:06;97556.00;;;19.54;100.00
18795;BME280;29610;49.022;12.114;2023-07-13T03:14:35;97565.13;;;19.61;100.00
18795;BME280;29610;49.022;12.114;2023-07-13T03:17:06;97567.38;;;19.49;100.00
18795;BME280;29610;49.022;12.114;2023-07-13T03:19:40;97569.38;;;19.52;100.00
18795;BME280;29610;49.022;12.114;2023-07-13T03:22:09;97573.38;;;19.58;100.00
18795;BME280;29610;49.022;12.114;2023-07-13T03:24:39;97581.66;;;19.61;100.00
18795;BME280;29610;49.022;12.114;2023-07-13T03:27:07;97585.56;;;19.57;100.00
18795;BME280;29610;49.022;12.114;2023-07-13T03:29:40;97587.97;;;19.62;100.00
18795;BME280;29610;49.022;12.114;2023-07-13T03:32:09;97584.81;;;19.63;100.00
18795;BME280;29610;49.022;12.114;2023-07-13T03:34:37;97591.16;;;19.64;100.00
18795;BME280;29610;49.022;12.114;2023-07-13T03:37:08;97592.22;;;19.52;100.00
18795;BME280;29610;49.022;12.114;2023-07-13T03:39:37;97588.31;;;19.57;100.00
18795;BME280;29610;49.022;12.114;2023-07-13T03:42:06;97602.88;;;19.54;100.00
18795;BME280;29610;49.022;12.114;2023-07-13T03:44:35;97604.44;;;19.55;100.00
18795;BME280;29610;49.022;12.114;2023-07-13T03:47:04;97615.66;;;19.29;100.00
18795;BME280;29610;49.022;12.114;2023-07-13T03:49:36;97616.72;;;19.21;100.00
18795;BME280;29610;49.022;12.114;2023-07-13T03:52:06;97620.25;;;19.21;100.00
18795;BME280;29610;49.022;12.114;2023-07-13T03:54:35;97620.06;;;19.37;100.00
18795;BME280;29610;49.022;12.114;2023-07-13T03:57:06;97616.56;;;19.43;100.00
18795;BME280;29610;49.022;12.114;2023-07-13T03:59:36;97617.25;;;19.33;100.00
18795;BME280;29610;49.022;12.114;2023-07-13T04:02:05;97623.25;;;19.42;100.00
18795;BME280;29610;49.022;12.114;2023-07-13T04:04:34;97624.03;;;19.43;100.00
18795;BME280;29610;49.022;12.114;2023-07-13T04:07:03;97619.75;;;19.49;100.00
18795;BME280;29610;49.022;12.114;2023-07-13T04:09:33;97622.88;;;19.47;100.00
18795;BME280;29610;49.022;12.114;2023-07-13T04:12:04;97619.50;;;19.68;100.00
18795;BME280;29610;49.022;12.114;2023-07-13T04:14:32;97622.03;;;19.87;100.00
18795;BME280;29610;49.022;12.114;2023-07-13T04:17:01;97624.53;;;20.02;100.00
18795;BME280;29610;49.022;12.114;2023-07-13T04:19:30;97619.38;;;20.04;100.00
18795;BME280;29610;49.022;12.114;2023-07-13T04:21:59;97621.50;;;20.21;100.00
18795;BME280;29610;49.022;12.114;2023-07-13T04:24:27;97617.66;;;20.40;100.00
18795;BME280;29610;49.022;12.114;2023-07-13T04:26:57;97623.63;;;20.53;100.00
18795;BME280;29610;49.022;12.114;2023-07-13T04:29:26;97620.97;;;20.74;100.00
18795;BME280;29610;49.022;12.114;2023-07-13T04:31:55;97619.38;;;20.76;100.00
18795;BME280;29610;49.022;12.114;2023-07-13T04:34:24;97612.78;;;21.02;100.00
18795;BME280;29610;49.022;12.114;2023-07-13T04:36:53;97614.81;;;21.19;100.00
18795;BME280;29610;49.022;12.114;2023-07-13T04:39:21;97614.03;;;21.29;100.00
18795;BME280;29610;49.022;12.114;2023-07-13T04:41:52;97617.19;;;21.45;100.00
18795;BME280;29610;49.022;12.114;2023-07-13T04:44:22;97621.13;;;21.37;100.00
18795;BME280;29610;49.022;12.114;2023-07-13T04:46:50;97624.31;;;21.42;100.00
18795;BME280;29610;49.022;12.114;2023-07-13T04:49:18;97614.03;;;21.46;100.00
18795;BME280;29610;49.022;12.114;2023-07-13T04:51:47;97623.91;;;21.37;100.00
18795;BME280;29610;49.022;12.114;2023-07-13T04:54:15;97614.81;;;21.43;100.00
18795;BME280;29610;49.022;12.114;2023-07-13T04:56:44;97627.47;;;21.41;100.00
18795;BME280;29610;49.022;12.114;2023-07-13T04:59:12;97630.63;;;21.32;100.00
18795;BME280;29610;49.022;12.114;2023-07-13T05:01:42;97632.97;;;21.34;100.00
18795;BME280;29610;49.022;12.114;2023-07-13T05:04:11;97630.25;;;21.44;100.00
18795;BME280;29610;49.022;12.114;2023-07-13T05:06:40;97633.00;;;21.41;100.00
18795;BME280;29610;49.022;12.114;2023-07-13T05:09:08;97638.91;;;21.43;100.00
18795;BME280;29610;49.022;12.114;2023-07-13T05:11:37;97635.78;;;21.44;100.00
18795;BME280;29610;49.022;12.114;2023-07-13T05:14:05;97642.06;;;21.31;100.00
18795;BME280;29610;49.022;12.114;2023-07-13T05:16:34;97640.47;;;21.23;100.00
18795;BME280;29610;49.022;12.114;2023-07-13T05:19:04;97642.84;;;21.28;100.00
18795;BME280;29610;49.022;12.114;2023-07-13T05:21:32;97639.66;;;21.22;100.00
18795;BME280;29610;49.022;12.114;2023-07-13T05:24:01;97651.50;;;21.12;100.00
18795;BME280;29610;49.022;12.114;2023-07-13T05:26:45;97646.00;;;21.23;100.00
18795;BME280;29610;49.022;12.114;2023-07-13T05:29:14;97651.94;;;21.39;100.00
18795;BME280;29610;49.022;12.114;2023-07-13T05:31:42;97655.94;;;21.62;100.00
18795;BME280;29610;49.022;12.114;2023-07-13T05:34:13;97649.25;;;21.88;100.00
18795;BME280;29610;49.022;12.114;2023-07-13T05:36:42;97653.59;;;21.96;100.00
18795;BME280;29610;49.022;12.114;2023-07-13T05:39:10;97659.88;;;22.28;100.00
18795;BME280;29610;49.022;12.114;2023-07-13T05:41:40;97657.09;;;22.35;100.00
18795;BME280;29610;49.022;12.114;2023-07-13T05:44:08;97666.97;;;22.33;100.00
18795;BME280;29610;49.022;12.114;2023-07-13T05:46:37;97665.84;;;22.13;100.00
18795;BME280;29610;49.022;12.114;2023-07-13T05:49:06;97663.06;;;22.13;100.00
18795;BME280;29610;49.022;12.114;2023-07-13T05:51:36;97665.44;;;22.07;100.00
18795;BME280;29610;49.022;12.114;2023-07-13T05:54:04;97655.97;;;22.08;100.00
18795;BME280;29610;49.022;12.114;2023-07-13T05:56:33;97664.25;;;22.19;100.00
18795;BME280;29610;49.022;12.114;2023-07-13T05:59:02;97662.66;;;22.28;100.00
18795;BME280;29610;49.022;12.114;2023-07-13T06:01:31;97668.59;;;22.16;100.00
18795;BME280;29610;49.022;12.114;2023-07-13T06:04:00;97670.56;;;22.33;100.00
18795;BME280;29610;49.022;12.114;2023-07-13T06:06:29;97666.19;;;22.43;100.00
18795;BME280;29610;49.022;12.114;2023-07-13T06:08:59;97670.16;;;22.42;100.00
18795;BME280;29610;49.022;12.114;2023-07-13T06:11:28;97669.81;;;22.08;100.00
18795;BME280;29610;49.022;12.114;2023-07-13T06:13:57;97669.41;;;22.10;100.00
18795;BME280;29610;49.022;12.114;2023-07-13T06:16:26;97680.06;;;22.11;100.00
18795;BME280;29610;49.022;12.114;2023-07-13T06:18:54;97679.22;;;22.42;100.00
18795;BME280;29610;49.022;12.114;2023-07-13T06:21:23;97674.88;;;22.62;100.00
18795;BME280;29610;49.022;12.114;2023-07-13T06:23:52;97674.75;;;22.90;100.00
18795;BME280;29610;49.022;12.114;2023-07-13T06:26:22;97677.84;;;23.10;100.00
18795;BME280;29610;49.022;12.114;2023-07-13T06:28:51;97676.56;;;23.29;100.00
18795;BME280;29610;49.022;12.114;2023-07-13T06:31:20;97673.84;;;23.18;100.00
18795;BME280;29610;49.022;12.114;2023-07-13T06:33:49;97669.88;;;23.19;100.00
18795;BME280;29610;49.022;12.114;2023-07-13T06:36:17;97682.50;;;23.31;100.00
18795;BME280;29610;49.022;12.114;2023-07-13T06:38:46;97684.94;;;23.14;100.00
18795;BME280;29610;49.022;12.114;2023-07-13T06:41:15;97692.03;;;23.19;100.00
18795;BME280;29610;49.022;12.114;2023-07-13T06:43:45;97694.41;;;23.21;100.00
18795;BME280;29610;49.022;12.114;2023-07-13T06:46:13;97692.44;;;23.21;100.00
18795;BME280;29610;49.022;12.114;2023-07-13T06:48:42;97688.47;;;23.29;100.00
18795;BME280;29610;49.022;12.114;2023-07-13T06:51:10;97689.59;;;23.39;100.00
18795;BME280;29610;49.022;12.114;2023-07-13T06:53:40;97688.78;;;23.45;100.00
18795;BME280;29610;49.022;12.114;2023-07-13T06:56:10;97686.91;;;23.83;100.00
18795;BME280;29610;49.022;12.114;2023-07-13T06:58:39;97684.84;;;23.97;100.00
18795;BME280;29610;49.022;12.114;2023-07-13T07:01:09;97687.69;;;23.87;100.00
18795;BME280;29610;49.022;12.114;2023-07-13T07:03:38;97694.00;;;23.87;100.00
18795;BME280;29610;49.022;12.114;2023-07-13T07:06:15;97700.09;;;24.23;100.00
18795;BME280;29610;49.022;12.114;2023-07-13T07:08:44;97696.84;;;24.31;100.00
18795;BME280;29610;49.022;12.114;2023-07-13T07:11:16;97695.19;;;24.41;100.00
18795;BME280;29610;49.022;12.114;2023-07-13T07:13:46;97696.34;;;24.40;100.00
18795;BME280;29610;49.022;12.114;2023-07-13T07:16:16;97689.97;;;24.84;100.00
18795;BME280;29610;49.022;12.114;2023-07-13T07:18:45;97698.84;;;25.05;100.00
18795;BME280;29610;49.022;12.114;2023-07-13T07:21:14;97693.97;;;25.46;100.00
18795;BME280;29610;49.022;12.114;2023-07-13T07:23:43;97697.59;;;25.43;100.00
18795;BME280;29610;49.022;12.114;2023-07-13T07:26:11;97710.50;;;25.57;100.00
18795;BME280;29610;49.022;12.114;2023-07-13T07:28:40;97708.75;;;25.93;100.00
18795;BME280;29610;49.022;12.114;2023-07-13T07:31:16;97707.63;;;26.40;100.00
18795;BME280;29610;49.022;12.114;2023-07-13T07:33:48;97704.41;;;26.42;100.00
18795;BME280;29610;49.022;12.114;2023-07-13T07:36:18;97713.44;;;26.72;100.00
18795;BME280;29610;49.022;12.114;2023-07-13T07:38:49;97711.47;;;27.12;100.00
18795;BME280;29610;49.022;12.114;2023-07-13T07:41:18;97713.53;;;27.47;100.00
18795;BME280;29610;49.022;12.114;2023-07-13T07:43:49;97716.31;;;27.83;100.00
18795;BME280;29610;49.022;12.114;2023-07-13T07:46:19;97719.00;;;27.35;100.00
18795;BME280;29610;49.022;12.114;2023-07-13T07:48:47;97722.66;;;26.89;100.00
18795;BME280;29610;49.022;12.114;2023-07-13T07:51:16;97721.06;;;26.45;100.00
18795;BME280;29610;49.022;12.114;2023-07-13T07:53:44;97722.16;;;26.51;100.00
18795;BME280;29610;49.022;12.114;2023-07-13T07:56:13;97723.19;;;26.61;100.00
18795;BME280;29610;49.022;12.114;2023-07-13T07:58:46;97725.50;;;26.66;100.00
18795;BME280;29610;49.022;12.114;2023-07-13T08:01:19;97722.69;;;26.43;100.00
18795;BME280;29610;49.022;12.114;2023-07-13T08:03:50;97728.53;;;26.52;100.00
18795;BME280;29610;49.022;12.114;2023-07-13T08:06:22;97737.22;;;26.54;100.00
18795;BME280;29610;49.022;12.114;2023-07-13T08:08:53;97729.16;;;26.82;100.00
18795;BME280;29610;49.022;12.114;2023-07-13T08:11:22;97726.75;;;27.04;100.00
18795;BME280;29610;49.022;12.114;2023-07-13T08:13:54;97735.56;;;27.22;96.14
18795;BME280;29610;49.022;12.114;2023-07-13T08:16:24;97732.03;;;27.18;91.33
18795;BME280;29610;49.022;12.114;2023-07-13T08:18:53;97742.06;;;27.15;85.23
18795;BME280;29610;49.022;12.114;2023-07-13T08:21:22;97746.78;;;26.99;86.15
18795;BME280;29610;49.022;12.114;2023-07-13T08:23:50;97741.28;;;27.15;88.33
18795;BME280;29610;49.022;12.114;2023-07-13T08:26:19;97752.97;;;27.49;86.82
18795;BME280;29610;49.022;12.114;2023-07-13T08:28:49;97753.59;;;27.57;84.84
18795;BME280;29610;49.022;12.114;2023-07-13T08:31:17;97748.69;;;27.80;82.76
18795;BME280;29610;49.022;12.114;2023-07-13T08:33:47;97744.38;;;27.95;81.25
18795;BME280;29610;49.022;12.114;2023-07-13T08:36:16;97751.03;;;27.82;75.11
18795;BME280;29610;49.022;12.114;2023-07-13T08:38:45;97751.09;;;28.14;73.71
18795;BME280;29610;49.022;12.114;2023-07-13T08:41:16;97764.19;;;28.01;78.00
18795;BME280;29610;49.022;12.114;2023-07-13T08:43:48;97761.41;;;28.01;70.29
18795;BME280;29610;49.022;12.114;2023-07-13T08:46:24;97752.13;;;28.04;67.45
18795;BME280;29610;49.022;12.114;2023-07-13T08:49:01;97752.75;;;28.43;62.18
18795;BME280;29610;49.022;12.114;2023-07-13T08:51:41;97770.00;;;28.58;58.36
18795;BME280;29610;49.022;12.114;2023-07-13T08:54:25;97767.63;;;28.40;56.57
18795;BME280;29610;49.022;12.114;2023-07-13T08:56:58;97769.03;;;28.48;60.00
18795;BME280;29610;49.022;12.114;2023-07-13T08:59:32;97770.59;;;28.82;56.31
18795;BME280;29610;49.022;12.114;2023-07-13T09:02:22;97771.69;;;29.16;53.78
18795;BME280;29610;49.022;12.114;2023-07-13T09:04:59;97770.59;;;28.33;54.79
18795;BME280;29610;49.022;12.114;2023-07-13T09:07:48;97775.56;;;28.10;57.52
18795;BME280;29610;49.022;12.114;2023-07-13T09:10:28;97766.44;;;29.02;56.23
18795;BME280;29610;49.022;12.114;2023-07-13T09:13:12;97782.00;;;29.60;52.52
18795;BME280;29610;49.022;12.114;2023-07-13T09:15:46;97772.88;;;29.85;53.14
18795;BME280;29610;49.022;12.114;2023-07-13T09:18:25;97777.25;;;29.45;52.88
18795;BME280;29610;49.022;12.114;2023-07-13T09:21:02;97764.38;;;30.01;53.68
18795;BME280;29610;49.022;12.114;2023-07-13T09:23:32;97763.47;;;30.54;53.78
18795;BME280;29610;49.022;12.114;2023-07-13T09:26:05;97772.63;;;30.80;53.26
18795;BME280;29610;49.022;12.114;2023-07-13T09:28:39;97780.28;;;30.17;51.99
18795;BME280;29610;49.022;12.114;2023-07-13T09:31:14;97775.09;;;29.08;55.04
18795;BME280;29610;49.022;12.114;2023-07-13T09:33:43;97785.00;;;28.32;62.89
18795;BME280;29610;49.022;12.114;2023-07-13T09:36:21;97781.34;;;28.19;63.58
18795;BME280;29610;49.022;12.114;2023-07-13T09:39:03;97776.84;;;29.18;61.35
18795;BME280;29610;49.022;12.114;2023-07-13T09:41:43;97768.66;;;29.52;55.07
18795;BME280;29610;49.022;12.114;2023-07-13T09:44:17;97769.09;;;29.50;51.39
18795;BME280;29610;49.022;12.114;2023-07-13T09:46:52;97766.94;;;29.70;48.75
18795;BME280;29610;49.022;12.114;2023-07-13T09:49:25;97765.53;;;29.62;48.36
18795;BME280;29610;49.022;12.114;2023-07-13T09:52:02;97775.13;;;29.77;49.71
18795;BME280;29610;49.022;12.114;2023-07-13T09:54:34;97771.78;;;29.54;45.41
18795;BME280;29610;49.022;12.114;2023-07-13T09:57:14;97778.75;;;29.21;44.99
18795;BME280;29610;49.022;12.114;2023-07-13T09:59:46;97781.19;;;29.03;46.46
18795;BME280;29610;49.022;12.114;2023-07-13T10:02:30;97775.25;;;29.45;45.05
18795;BME280;29610;49.022;12.114;2023-07-13T10:05:04;97780.16;;;29.82;47.67
18795;BME280;29610;49.022;12.114;2023-07-13T10:07:40;97778.25;;;29.92;46.05
18795;BME280;29610;49.022;12.114;2023-07-13T10:10:17;97770.97;;;30.70;45.03
18795;BME280;29610;49.022;12.114;2023-07-13T10:12:47;97789.03;;;29.52;46.81
18795;BME280;29610;49.022;12.114;2023-07-13T10:15:19;97780.28;;;30.67;46.72
18795;BME280;29610;49.022;12.114;2023-07-13T10:17:53;97784.00;;;31.10;43.91
18795;BME280;29610;49.022;12.114;2023-07-13T10:20:27;97772.03;;;31.31;43.44
18795;BME280;29610;49.022;12.114;2023-07-13T10:23:01;97777.13;;;31.98;41.58
18795;BME280;29610;49.022;12.114;2023-07-13T10:25:33;97762.28;;;32.67;40.44
18795;BME280;29610;49.022;12.114;2023-07-13T10:28:11;97765.78;;;32.41;38.44
18795;BME280;29610;49.022;12.114;2023-07-13T10:30:47;97769.44;;;32.20;38.97
18795;BME280;29610;49.022;12.114;2023-07-13T10:33:17;97770.97;;;32.12;39.08
18795;BME280;29610;49.022;12.114;2023-07-13T10:35:45;97769.19;;;31.75;38.67
18795;BME280;29610;49.022;12.114;2023-07-13T10:38:22;97768.06;;;32.24;39.66
18795;BME280;29610;49.022;12.114;2023-07-13T10:40:58;97767.25;;;32.15;39.53
18795;BME280;29610;49.022;12.114;2023-07-13T10:43:36;97763.84;;;31.89;39.32
18795;BME280;29610;49.022;12.114;2023-07-13T10:46:14;97770.06;;;32.24;42.84
18795;BME280;29610;49.022;12.114;2023-07-13T10:48:48;97772.13;;;31.93;41.08
18795;BME280;29610;49.022;12.114;2023-07-13T10:51:19;97778.81;;;31.86;41.40
18795;BME280;29610;49.022;12.114;2023-07-13T10:54:16;97781.00;;;31.26;40.00
18795;BME280;29610;49.022;12.114;2023-07-13T10:56:52;97784.91;;;31.07;41.27
18795;BME280;29610;49.022;12.114;2023-07-13T10:59:26;97785.31;;;29.84;44.02
18795;BME280;29610;49.022;12.114;2023-07-13T11:02:10;97771.75;;;29.41;44.46
18795;BME280;29610;49.022;12.114;2023-07-13T11:04:43;97772.25;;;28.79;45.05
18795;BME280;29610;49.022;12.114;2023-07-13T11:07:20;97772.97;;;28.67;45.57
18795;BME280;29610;49.022;12.114;2023-07-13T11:09:53;97771.78;;;28.16;44.62
18795;BME280;29610;49.022;12.114;2023-07-13T11:12:51;97775.91;;;28.44;45.38
18795;BME280;29610;49.022;12.114;2023-07-13T11:15:43;97775.25;;;28.72;44.99
18795;BME280;29610;49.022;12.114;2023-07-13T11:18:23;97778.69;;;29.65;43.81
18795;BME280;29610;49.022;12.114;2023-07-13T11:21:12;97784.44;;;29.99;43.91
18795;BME280;29610;49.022;12.114;2023-07-13T11:24:12;97784.72;;;30.30;41.30
18795;BME280;29610;49.022;12.114;2023-07-13T11:26:52;97766.91;;;30.71;38.34
18795;BME280;29610;49.022;12.114;2023-07-13T11:29:33;97766.16;;;31.04;39.43
18795;BME280;29610;49.022;12.114;2023-07-13T11:32:24;97760.91;;;31.71;38.06
18795;BME280;29610;49.022;12.114;2023-07-13T11:34:54;97760.66;;;31.57;38.06
18795;BME280;29610;49.022;12.114;2023-07-13T11:37:24;97760.81;;;31.84;37.93
18795;BME280;29610;49.022;12.114;2023-07-13T11:39:54;97767.38;;;32.42;36.39
18795;BME280;29610;49.022;12.114;2023-07-13T11:42:24;97758.84;;;32.82;35.24
18795;BME280;29610;49.022;12.114;2023-07-13T11:44:52;97750.56;;;33.59;35.26
18795;BME280;29610;49.022;12.114;2023-07-13T11:47:42;97758.41;;;32.92;35.32
18795;BME280;29610;49.022;12.114;2023-07-13T11:50:19;97758.56;;;33.70;34.58
18795;BME280;29610;49.022;12.114;2023-07-13T11:52:50;97744.28;;;33.73;34.25
18795;BME280;29610;49.022;12.114;2023-07-13T11:55:22;97747.81;;;34.01;33.45
18795;BME280;29610;49.022;12.114;2023-07-13T11:57:58;97745.25;;;34.21;34.33
18795;BME280;29610;49.022;12.114;2023-07-13T12:00:31;97742.44;;;34.54;33.31
18795;BME280;29610;49.022;12.114;2023-07-13T12:03:03;97756.44;;;34.48;32.93
18795;BME280;29610;49.022;12.114;2023-07-13T12:05:33;97750.84;;;34.30;32.35
18795;BME280;29610;49.022;12.114;2023-07-13T12:08:09;97756.25;;;34.75;32.44
18795;BME280;29610;49.022;12.114;2023-07-13T12:10:59;97760.59;;;35.23;32.55
18795;BME280;29610;49.022;12.114;2023-07-13T12:13:29;97761.22;;;35.27;30.93
18795;BME280;29610;49.022;12.114;2023-07-13T12:15:57;97750.44;;;35.17;30.69
18795;BME280;29610;49.022;12.114;2023-07-13T12:18:30;97755.66;;;34.95;32.11
18795;BME280;29610;49.022;12.114;2023-07-13T12:21:01;97742.63;;;35.35;33.39
18795;BME280;29610;49.022;12.114;2023-07-13T12:23:34;97740.34;;;35.63;32.80
18795;BME280;29610;49.022;12.114;2023-07-13T12:26:05;97741.38;;;36.24;31.42
18795;BME280;29610;49.022;12.114;2023-07-13T12:28:45;97740.78;;;34.94;30.36
18795;BME280;29610;49.022;12.114;2023-07-13T12:31:31;97742.97;;;35.28;30.85
18795;BME280;29610;49.022;12.114;2023-07-13T12:34:02;97729.53;;;33.96;31.87
18795;BME280;29610;49.022;12.114;2023-07-13T12:36:37;97739.63;;;32.80;34.46
18795;BME280;29610;49.022;12.114;2023-07-13T12:39:16;97731.88;;;33.89;33.20
18795;BME280;29610;49.022;12.114;2023-07-13T12:41:47;97732.41;;;34.53;33.18
18795;BME280;29610;49.022;12.114;2023-07-13T12:44:24;97731.75;;;35.05;30.87
18795;BME280;29610;49.022;12.114;2023-07-13T12:46:58;97737.28;;;34.99;31.93
18795;BME280;29610;49.022;12.114;2023-07-13T12:49:32;97729.22;;;34.83;30.50
18795;BME280;29610;49.022;12.114;2023-07-13T12:52:14;97727.75;;;34.41;30.46
18795;BME280;29610;49.022;12.114;2023-07-13T12:54:52;97727.09;;;33.62;31.88
18795;BME280;29610;49.022;12.114;2023-07-13T12:57:39;97728.53;;;33.31;32.23
18795;BME280;29610;49.022;12.114;2023-07-13T13:00:23;97717.91;;;33.17;31.75
18795;BME280;29610;49.022;12.114;2023-07-13T13:02:55;97708.69;;;32.89;32.39
18795;BME280;29610;49.022;12.114;2023-07-13T13:05:42;97707.34;;;31.96;32.68
18795;BME280;29610;49.022;12.114;2023-07-13T13:08:13;97718.75;;;31.93;32.96